Time;durP1;ratioP1;P1;durP2;ratioP2;P2;SDS_P1;SDS_P2;PMS_P1;PMS_P2;Temp;Humidity;BMP_temperature;BMP_pressure;BME280_temperature;BME280_humidity;BME280_pressure;Samples;Min_cycle;Max_cycle;Signal;HPM_P1;HPM_P2
2021/03/23 00:04:30;;;;;;;14.85;5.70;;;3.30;99.90;;;;;;20896499;28;20382;-75
2021/03/23 00:14:31;;;;;;;18.43;5.83;;;3.30;99.90;;;;;;20915316;28;20033;-76
2021/03/23 00:24:32;;;;;;;24.50;5.63;;;3.40;99.90;;;;;;20912673;28;20029;-75
2021/03/23 00:34:33;;;;;;;14.07;5.63;;;3.40;99.90;;;;;;20895040;28;20045;-77
2021/03/23 00:44:35;;;;;;;14.13;5.67;;;3.20;99.90;;;;;;20910909;28;20032;-75
2021/03/23 00:54:36;;;;;;;12.20;5.82;;;3.10;99.90;;;;;;20909098;28;20433;-77
2021/03/23 01:04:37;;;;;;;16.00;5.47;;;3.00;99.90;;;;;;20907767;28;20082;-76
2021/03/23 01:14:39;;;;;;;10.47;4.93;;;3.00;99.90;;;;;;20907325;28;20040;-76
2021/03/23 01:24:39;;;;;;;10.85;5.00;;;2.90;99.90;;;;;;20906985;28;20096;-76
2021/03/23 01:34:40;;;;;;;16.58;5.18;;;2.80;99.90;;;;;;20888623;28;20059;-75
2021/03/23 01:44:44;;;;;;;15.70;5.50;;;2.70;99.90;;;;;;20906610;28;20103;-76
2021/03/23 01:54:59;;;;;;;18.73;5.63;;;2.80;99.90;;;;;;20905586;28;20083;-77
2021/03/23 02:05:00;;;;;;;18.15;6.25;;;2.90;99.90;;;;;;20905722;28;20546;-76
2021/03/23 02:15:01;;;;;;;16.70;5.60;;;2.90;99.90;;;;;;20887710;28;20029;-78
2021/03/23 02:25:04;;;;;;;9.27;5.07;;;2.90;99.90;;;;;;20907155;28;20025;-77
2021/03/23 02:35:06;;;;;;;16.08;6.50;;;2.90;99.90;;;;;;20913409;28;20041;-75
2021/03/23 02:45:07;;;;;;;12.93;5.70;;;2.90;99.90;;;;;;20902900;28;20029;-77
2021/03/23 02:55:09;;;;;;;21.05;6.53;;;2.80;99.90;;;;;;20917725;28;20064;-75
2021/03/23 03:05:12;;;;;;;11.98;5.55;;;2.50;99.90;;;;;;20899031;28;20422;-77
2021/03/23 03:15:13;;;;;;;16.23;6.05;;;2.40;99.90;;;;;;20916653;28;20483;-76
2021/03/23 03:25:16;;;;;;;13.63;5.72;;;2.30;99.90;;;;;;20915737;28;20183;-76
2021/03/23 03:35:18;;;;;;;9.90;5.50;;;2.40;99.90;;;;;;20976898;23;20036;-78
2021/03/23 03:45:21;;;;;;;20.05;6.32;;;2.30;99.90;;;;;;21005281;28;20040;-78
2021/03/23 03:55:25;;;;;;;19.95;7.13;;;2.10;99.90;;;;;;21007913;28;20035;-78
2021/03/23 04:05:33;;;;;;;14.73;5.82;;;2.10;99.90;;;;;;21007559;28;20028;-78
2021/03/23 04:15:38;;;;;;;13.90;5.97;;;2.00;99.90;;;;;;21004856;28;20668;-78
2021/03/23 04:25:39;;;;;;;13.30;6.38;;;1.40;99.90;;;;;;21003719;28;20032;-78
2021/03/23 04:35:44;;;;;;;;;;;1.20;99.90;;;;;;21045126;28;20115;-78
2021/03/23 04:45:45;;;;;;;12.10;6.43;;;1.10;99.90;;;;;;21041009;28;19912;-78
2021/03/23 04:55:46;;;;;;;13.90;5.93;;;0.80;99.90;;;;;;21089142;28;20069;-78
2021/03/23 05:05:52;;;;;;;15.07;6.40;;;0.80;99.90;;;;;;21064396;28;20055;-75
2021/03/23 05:15:53;;;;;;;10.70;6.13;;;0.80;99.90;;;;;;21074229;28;20389;-76
2021/03/23 05:25:54;;;;;;;19.33;5.63;;;0.50;99.90;;;;;;21073972;28;20111;-76
2021/03/23 05:35:57;;;;;;;10.07;4.82;;;0.70;99.90;;;;;;21055254;28;20123;-77
2021/03/23 05:46:00;;;;;;;9.27;4.68;;;0.40;99.90;;;;;;21073584;28;20035;-74
2021/03/23 05:56:02;;;;;;;8.32;5.10;;;0.00;99.90;;;;;;21072875;28;20032;-76
2021/03/23 06:06:12;;;;;;;18.73;7.38;;;0.50;99.90;;;;;;21074807;28;20024;-75
2021/03/23 06:16:39;;;;;;;8.93;4.78;;;1.30;99.90;;;;;;21079304;28;20062;-77
2021/03/23 06:26:50;;;;;;;16.55;6.55;;;1.50;99.90;;;;;;21080975;28;20403;-77
2021/03/23 06:36:51;;;;;;;;;;;2.30;99.90;;;;;;21080095;28;20039;-78
2021/03/23 06:46:53;;;;;;;19.85;6.05;;;2.90;99.90;;;;;;21097278;28;20278;-78
2021/03/23 06:57:00;;;;;;;10.88;5.70;;;3.80;99.90;;;;;;21097372;28;20031;-78
2021/03/23 07:07:09;;;;;;;15.15;7.07;;;4.50;99.90;;;;;;21076710;28;20063;-78
2021/03/23 07:17:10;;;;;;;17.08;8.82;;;4.60;99.90;;;;;;21075089;28;20032;-77
2021/03/23 07:27:18;;;;;;;19.10;8.63;;;5.50;99.90;;;;;;21092274;28;20028;-78
2021/03/23 07:37:30;;;;;;;15.80;7.43;;;6.60;99.90;;;;;;21074585;28;20274;-78
2021/03/23 07:47:41;;;;;;;17.40;7.35;;;7.20;99.90;;;;;;21091021;28;20027;-77
2021/03/23 07:58:00;;;;;;;17.00;6.95;;;8.00;99.90;;;;;;21071411;28;20082;-78
2021/03/23 08:08:07;;;;;;;16.75;7.43;;;8.30;99.90;;;;;;21089038;28;20043;-77
2021/03/23 08:18:36;;;;;;;15.93;8.18;;;8.60;99.90;;;;;;21070029;28;20028;-77
2021/03/23 08:28:53;;;;;;;19.98;7.97;;;8.50;99.90;;;;;;21071032;28;20093;-76
2021/03/23 08:39:13;;;;;;;20.48;8.60;;;8.40;99.90;;;;;;21083754;28;20055;-78
2021/03/23 08:49:19;;;;;;;19.00;8.95;;;9.60;99.90;;;;;;21081655;28;20020;-77
2021/03/23 08:59:35;;;;;;;14.85;7.55;;;10.00;99.90;;;;;;21080912;28;20035;-77
2021/03/23 09:09:41;;;;;;;13.23;7.22;;;9.80;99.90;;;;;;21079303;28;20032;-75
2021/03/23 09:19:53;;;;;;;18.70;7.25;;;11.00;99.90;;;;;;21078384;28;20402;-78
2021/03/23 09:29:54;;;;;;;13.87;6.40;;;11.60;99.90;;;;;;21077774;28;20050;-77
2021/03/23 09:39:55;;;;;;;9.48;5.03;;;12.30;99.90;;;;;;20902203;22;20358;-77
2021/03/23 09:49:56;;;;;;;10.30;5.45;;;12.60;99.90;;;;;;20840571;28;20029;-78
2021/03/23 10:00:00;;;;;;;12.43;5.13;;;12.80;99.90;;;;;;20840488;28;20049;-77
2021/03/23 10:10:35;;;;;;;11.00;5.00;;;12.90;99.90;;;;;;20839994;28;20128;-77
2021/03/23 10:20:37;;;;;;;10.55;5.45;;;13.20;99.90;;;;;;20837545;28;20049;-77
2021/03/23 10:30:38;;;;;;;9.10;5.43;;;13.60;99.90;;;;;;20820603;28;20071;-77
2021/03/23 10:40:40;;;;;;;9.63;4.75;;;13.50;99.90;;;;;;20837724;28;20132;-78
2021/03/23 10:50:43;;;;;;;10.70;6.00;;;14.10;99.90;;;;;;20837441;28;20032;-78
2021/03/23 11:00:45;;;;;;;13.77;5.68;;;14.90;98.10;;;;;;20835625;28;20076;-78
2021/03/23 11:10:47;;;;;;;14.63;5.43;;;14.70;98.10;;;;;;20819015;28;20496;-77
2021/03/23 11:20:50;;;;;;;10.97;5.30;;;14.00;99.90;;;;;;20817378;28;20095;-77
2021/03/23 11:30:51;;;;;;;11.25;4.88;;;14.50;97.20;;;;;;20834098;28;20033;-79
2021/03/23 11:40:54;;;;;;;9.20;5.32;;;14.60;97.40;;;;;;20816819;28;20042;-78
2021/03/23 11:50:55;;;;;;;8.88;4.93;;;15.20;96.40;;;;;;20818622;28;20037;-78
2021/03/23 12:00:56;;;;;;;9.30;4.80;;;15.60;96.30;;;;;;20837697;28;20021;-79
2021/03/23 12:11:20;;;;;;;10.93;5.00;;;16.30;95.20;;;;;;20815069;28;20029;-79
2021/03/23 12:21:22;;;;;;;9.18;4.85;;;15.60;95.00;;;;;;20815491;28;20034;-79
2021/03/23 12:31:23;;;;;;;10.68;5.38;;;14.50;95.60;;;;;;20812051;28;20095;-77
2021/03/23 12:41:32;;;;;;;10.48;5.32;;;14.70;96.30;;;;;;21063806;27;20352;-78
2021/03/23 12:51:49;;;;;;;10.88;5.38;;;15.70;93.90;;;;;;21076499;28;20058;-77
2021/03/23 13:01:51;;;;;;;13.40;6.32;;;15.20;94.80;;;;;;21065902;28;20555;-77
2021/03/23 13:11:52;;;;;;;9.93;6.03;;;15.60;94.70;;;;;;21062177;28;20389;-76
2021/03/23 13:22:03;;;;;;;10.02;5.20;;;15.40;94.80;;;;;;21055115;28;20028;-78
2021/03/23 13:32:05;;;;;;;10.45;5.03;;;15.90;93.10;;;;;;20975142;28;20028;-77
2021/03/23 13:42:25;;;;;;;9.82;4.72;;;15.90;94.40;;;;;;20974388;28;20039;-77
2021/03/23 13:52:38;;;;;;;9.88;5.55;;;15.70;93.30;;;;;;20921604;28;20035;-76
2021/03/23 14:02:39;;;;;;;9.75;4.93;;;15.80;91.10;;;;;;20917909;28;20044;-77
2021/03/23 14:12:39;;;;;;;8.93;4.55;;;15.40;93.60;;;;;;20935767;28;20117;-77
2021/03/23 14:22:41;;;;;;;8.38;4.85;;;15.20;94.30;;;;;;20968002;28;20442;-76
2021/03/23 14:32:42;;;;;;;8.83;5.00;;;14.70;93.80;;;;;;20910338;28;20048;-75
2021/03/23 14:42:43;;;;;;;9.85;6.63;;;13.90;95.10;;;;;;20939967;28;20024;-76
2021/03/23 14:52:46;;;;;;;15.57;7.47;;;13.80;94.60;;;;;;20914851;28;20021;-77
2021/03/23 15:02:46;;;;;;;13.48;6.03;;;13.30;95.40;;;;;;20892628;28;20041;-77
2021/03/23 15:12:47;;;;;;;16.80;5.93;;;13.20;96.10;;;;;;20906897;28;20032;-77
2021/03/23 15:22:49;;;;;;;14.15;7.00;;;13.10;97.50;;;;;;20981953;28;20029;-77
2021/03/23 15:32:49;;;;;;;10.10;5.03;;;13.00;97.00;;;;;;20946238;23;20100;-76
2021/03/23 15:42:50;;;;;;;9.75;4.88;;;12.40;98.40;;;;;;20779720;28;20389;-76
2021/03/23 15:52:52;;;;;;;10.55;5.40;;;12.40;99.30;;;;;;20774552;28;20447;-76
2021/03/23 16:02:54;;;;;;;9.63;5.00;;;12.20;98.40;;;;;;20774214;28;20411;-77
2021/03/23 16:12:55;;;;;;;9.02;4.78;;;12.50;97.60;;;;;;20758772;28;20033;-77
2021/03/23 16:23:00;;;;;;;17.10;7.78;;;12.20;98.70;;;;;;20725998;28;20046;-77
2021/03/23 16:33:01;;;;;;;13.27;7.10;;;12.00;99.80;;;;;;20724081;28;20141;-77
2021/03/23 16:43:11;;;;;;;13.13;4.82;;;11.70;99.70;;;;;;20723599;28;20037;-77
2021/03/23 16:53:13;;;;;;;12.15;4.78;;;11.40;99.90;;;;;;20725485;28;20076;-75
2021/03/23 17:03:17;;;;;;;12.82;5.30;;;11.30;99.90;;;;;;20723457;28;20455;-76
2021/03/23 17:13:17;;;;;;;7.93;3.95;;;11.20;99.90;;;;;;20721160;28;20679;-75
2021/03/23 17:23:21;;;;;;;11.35;5.75;;;10.90;99.90;;;;;;20727873;28;20030;-75
2021/03/23 17:33:28;;;;;;;6.43;3.55;;;10.20;99.90;;;;;;20736880;28;20033;-76
2021/03/23 17:43:29;;;;;;;10.05;4.38;;;9.70;99.90;;;;;;20738903;28;20470;-75
2021/03/23 17:53:35;;;;;;;11.23;4.87;;;9.20;99.90;;;;;;20766747;28;20404;-75
2021/03/23 18:03:36;;;;;;;7.13;3.63;;;7.90;99.90;;;;;;20733998;28;20076;-75
2021/03/23 18:13:38;;;;;;;9.03;4.60;;;8.00;99.90;;;;;;20733699;28;20034;-77
2021/03/23 18:23:40;;;;;;;9.25;4.63;;;8.10;99.90;;;;;;20735410;28;20500;-76
2021/03/23 18:33:41;;;;;;;10.37;4.73;;;7.80;99.90;;;;;;20731674;28;20068;-76
2021/03/23 18:43:41;;;;;;;8.50;4.13;;;7.50;99.90;;;;;;20729953;28;20034;-76
2021/03/23 18:53:43;;;;;;;7.70;4.17;;;7.20;99.90;;;;;;20733590;28;20042;-75
2021/03/23 19:03:44;;;;;;;11.30;5.03;;;7.00;99.90;;;;;;20729866;28;20034;-75
2021/03/23 19:13:45;;;;;;;10.43;5.67;;;6.50;99.90;;;;;;20750579;28;20450;-76
2021/03/23 19:23:47;;;;;;;13.27;5.30;;;6.40;99.90;;;;;;20740278;28;20034;-75
2021/03/23 19:33:51;;;;;;;13.27;6.00;;;6.00;99.90;;;;;;20726958;28;20428;-75
2021/03/23 19:43:52;;;;;;;16.58;6.57;;;5.30;99.90;;;;;;20755579;28;20033;-76
2021/03/23 19:53:53;;;;;;;14.93;6.73;;;5.00;99.90;;;;;;20807032;28;20031;-75
2021/03/23 20:03:54;;;;;;;13.43;5.83;;;4.60;99.90;;;;;;20806769;28;20519;-77
2021/03/23 20:13:55;;;;;;;15.47;6.27;;;4.30;99.90;;;;;;20782017;28;20296;-75
2021/03/23 20:23:56;;;;;;;19.17;7.27;;;4.30;99.90;;;;;;20723908;28;20045;-77
2021/03/23 20:33:57;;;;;;;17.73;7.43;;;3.60;99.90;;;;;;20776490;28;20032;-78
2021/03/23 20:44:00;;;;;;;13.75;6.85;;;3.80;99.90;;;;;;20778820;28;20320;-75
2021/03/23 20:54:01;;;;;;;16.15;6.70;;;4.00;99.90;;;;;;20768656;28;20048;-76
2021/03/23 21:04:02;;;;;;;;;;;4.10;99.90;;;;;;20795254;28;20030;-75
2021/03/23 21:14:11;;;;;;;15.57;7.38;;;4.30;99.90;;;;;;20787036;28;19920;-76
2021/03/23 21:24:15;;;;;;;16.63;6.70;;;4.10;99.90;;;;;;20796201;28;20056;-76
2021/03/23 21:34:22;;;;;;;12.82;6.53;;;4.20;99.90;;;;;;20839508;22;20044;-77
2021/03/23 21:44:23;;;;;;;12.00;5.55;;;3.90;99.90;;;;;;20872584;28;20544;-76
2021/03/23 21:54:24;;;;;;;14.50;6.37;;;3.30;99.90;;;;;;20885979;28;20079;-77
2021/03/23 22:04:25;;;;;;;14.07;6.67;;;3.50;99.90;;;;;;20883394;28;20032;-75
2021/03/23 22:14:26;;;;;;;14.43;5.68;;;2.80;99.90;;;;;;20846249;28;20079;-76
2021/03/23 22:24:27;;;;;;;12.82;5.70;;;2.70;99.90;;;;;;20843392;28;20076;-76
2021/03/23 22:34:29;;;;;;;12.43;5.70;;;3.00;99.90;;;;;;20903677;28;20025;-75
2021/03/23 22:44:30;;;;;;;13.82;5.88;;;3.10;99.90;;;;;;20915073;28;20021;-75
2021/03/23 22:54:30;;;;;;;13.10;6.03;;;3.20;99.90;;;;;;20915081;28;20040;-77
2021/03/23 23:04:31;;;;;;;13.63;6.03;;;2.80;99.90;;;;;;20915332;28;20456;-78
2021/03/23 23:14:32;;;;;;;11.67;6.00;;;2.80;99.90;;;;;;20917724;28;20048;-77
2021/03/23 23:24:40;;;;;;;14.65;6.30;;;3.00;99.90;;;;;;20896960;28;20520;-77
2021/03/23 23:34:42;;;;;;;12.93;6.20;;;2.90;99.90;;;;;;20789967;28;20033;-77
2021/03/23 23:44:42;;;;;;;;;;;2.80;99.90;;;;;;20828143;28;20029;-76
2021/03/23 23:54:43;;;;;;;24.00;6.67;;;2.60;99.90;;;;;;20827190;28;19971;-77
